sensor_id;sensor_type;location;lat;lon;timestamp;P1;durP1;ratioP1;P2;durP2;ratioP2
14975;SDS011;7584;60.468;25.126;2023-02-18T00:01:51;3.70;;;2.33;;
14975;SDS011;7584;60.468;25.126;2023-02-18T00:04:16;3.47;;;2.20;;
14975;SDS011;7584;60.468;25.126;2023-02-18T00:06:41;4.23;;;2.20;;
14975;SDS011;7584;60.468;25.126;2023-02-18T00:09:06;3.77;;;2.43;;
14975;SDS011;7584;60.468;25.126;2023-02-18T00:11:33;3.33;;;2.50;;
14975;SDS011;7584;60.468;25.126;2023-02-18T00:14:00;3.30;;;2.30;;
14975;SDS011;7584;60.468;25.126;2023-02-18T00:16:26;2.77;;;1.97;;
14975;SDS011;7584;60.468;25.126;2023-02-18T00:18:56;7.43;;;2.57;;
14975;SDS011;7584;60.468;25.126;2023-02-18T00:21:21;3.43;;;2.33;;
14975;SDS011;7584;60.468;25.126;2023-02-18T00:23:47;3.97;;;2.03;;
14975;SDS011;7584;60.468;25.126;2023-02-18T00:26:13;4.73;;;2.27;;
14975;SDS011;7584;60.468;25.126;2023-02-18T00:28:39;3.20;;;2.20;;
14975;SDS011;7584;60.468;25.126;2023-02-18T00:31:15;4.13;;;2.07;;
14975;SDS011;7584;60.468;25.126;2023-02-18T00:33:41;3.50;;;1.90;;
14975;SDS011;7584;60.468;25.126;2023-02-18T00:36:08;2.47;;;1.70;;
14975;SDS011;7584;60.468;25.126;2023-02-18T00:38:34;2.57;;;1.67;;
14975;SDS011;7584;60.468;25.126;2023-02-18T00:40:59;3.27;;;1.47;;
14975;SDS011;7584;60.468;25.126;2023-02-18T00:43:24;1.67;;;1.53;;
14975;SDS011;7584;60.468;25.126;2023-02-18T00:45:50;1.67;;;1.30;;
14975;SDS011;7584;60.468;25.126;2023-02-18T00:48:15;2.70;;;2.00;;
14975;SDS011;7584;60.468;25.126;2023-02-18T00:50:40;2.97;;;1.73;;
14975;SDS011;7584;60.468;25.126;2023-02-18T00:53:06;2.00;;;1.60;;
14975;SDS011;7584;60.468;25.126;2023-02-18T00:55:31;2.23;;;1.90;;
14975;SDS011;7584;60.468;25.126;2023-02-18T00:57:56;2.23;;;1.73;;
14975;SDS011;7584;60.468;25.126;2023-02-18T01:00:22;2.13;;;1.60;;
14975;SDS011;7584;60.468;25.126;2023-02-18T01:02:49;2.73;;;1.70;;
14975;SDS011;7584;60.468;25.126;2023-02-18T01:05:18;3.17;;;2.17;;
14975;SDS011;7584;60.468;25.126;2023-02-18T01:07:43;2.23;;;1.50;;
14975;SDS011;7584;60.468;25.126;2023-02-18T01:10:08;1.57;;;1.47;;
14975;SDS011;7584;60.468;25.126;2023-02-18T01:12:33;3.93;;;1.70;;
14975;SDS011;7584;60.468;25.126;2023-02-18T01:14:59;1.83;;;1.50;;
14975;SDS011;7584;60.468;25.126;2023-02-18T01:17:24;2.83;;;1.53;;
14975;SDS011;7584;60.468;25.126;2023-02-18T01:19:49;1.80;;;1.50;;
14975;SDS011;7584;60.468;25.126;2023-02-18T01:22:15;2.07;;;1.50;;
14975;SDS011;7584;60.468;25.126;2023-02-18T01:24:40;2.00;;;1.53;;
14975;SDS011;7584;60.468;25.126;2023-02-18T01:27:05;2.73;;;1.67;;
14975;SDS011;7584;60.468;25.126;2023-02-18T01:29:30;3.33;;;1.77;;
14975;SDS011;7584;60.468;25.126;2023-02-18T01:31:56;3.07;;;1.90;;
14975;SDS011;7584;60.468;25.126;2023-02-18T01:34:21;3.73;;;1.90;;
14975;SDS011;7584;60.468;25.126;2023-02-18T01:36:46;2.33;;;1.50;;
14975;SDS011;7584;60.468;25.126;2023-02-18T01:39:11;3.33;;;1.77;;
14975;SDS011;7584;60.468;25.126;2023-02-18T01:41:37;2.10;;;1.87;;
14975;SDS011;7584;60.468;25.126;2023-02-18T01:44:19;3.73;;;1.93;;
14975;SDS011;7584;60.468;25.126;2023-02-18T01:46:45;3.33;;;2.00;;
14975;SDS011;7584;60.468;25.126;2023-02-18T01:49:12;2.90;;;1.97;;
14975;SDS011;7584;60.468;25.126;2023-02-18T01:51:38;2.57;;;2.20;;
14975;SDS011;7584;60.468;25.126;2023-02-18T01:54:07;3.40;;;1.90;;
14975;SDS011;7584;60.468;25.126;2023-02-18T01:56:38;2.10;;;1.57;;
14975;SDS011;7584;60.468;25.126;2023-02-18T01:59:06;2.03;;;1.43;;
14975;SDS011;7584;60.468;25.126;2023-02-18T02:01:33;1.63;;;1.43;;
14975;SDS011;7584;60.468;25.126;2023-02-18T02:03:59;2.07;;;1.37;;
14975;SDS011;7584;60.468;25.126;2023-02-18T02:06:24;2.23;;;1.60;;
14975;SDS011;7584;60.468;25.126;2023-02-18T02:08:50;2.43;;;1.80;;
14975;SDS011;7584;60.468;25.126;2023-02-18T02:11:20;2.10;;;1.57;;
14975;SDS011;7584;60.468;25.126;2023-02-18T02:16:20;1.50;;;1.30;;
14975;SDS011;7584;60.468;25.126;2023-02-18T02:44:33;2.87;;;1.57;;
14975;SDS011;7584;60.468;25.126;2023-02-18T02:47:47;2.33;;;1.50;;
14975;SDS011;7584;60.468;25.126;2023-02-18T02:50:02;2.63;;;1.73;;
14975;SDS011;7584;60.468;25.126;2023-02-18T02:52:30;2.70;;;1.73;;
14975;SDS011;7584;60.468;25.126;2023-02-18T02:54:56;2.87;;;1.97;;
14975;SDS011;7584;60.468;25.126;2023-02-18T02:59:51;3.20;;;2.20;;
14975;SDS011;7584;60.468;25.126;2023-02-18T03:12:49;2.80;;;2.10;;
14975;SDS011;7584;60.468;25.126;2023-02-18T03:15:27;3.63;;;2.53;;
14975;SDS011;7584;60.468;25.126;2023-02-18T03:18:02;3.23;;;2.30;;
14975;SDS011;7584;60.468;25.126;2023-02-18T03:20:36;4.27;;;2.53;;
14975;SDS011;7584;60.468;25.126;2023-02-18T03:23:04;4.77;;;2.70;;
14975;SDS011;7584;60.468;25.126;2023-02-18T03:25:31;3.10;;;2.00;;
14975;SDS011;7584;60.468;25.126;2023-02-18T03:28:01;4.33;;;2.97;;
14975;SDS011;7584;60.468;25.126;2023-02-18T03:32:57;3.13;;;2.13;;
14975;SDS011;7584;60.468;25.126;2023-02-18T03:35:24;3.60;;;2.73;;
14975;SDS011;7584;60.468;25.126;2023-02-18T03:37:52;3.13;;;2.20;;
14975;SDS011;7584;60.468;25.126;2023-02-18T03:40:18;3.00;;;2.50;;
14975;SDS011;7584;60.468;25.126;2023-02-18T03:42:44;2.87;;;2.40;;
14975;SDS011;7584;60.468;25.126;2023-02-18T03:45:09;4.20;;;2.90;;
14975;SDS011;7584;60.468;25.126;2023-02-18T03:47:36;3.23;;;2.50;;
14975;SDS011;7584;60.468;25.126;2023-02-18T03:50:01;3.53;;;2.43;;
14975;SDS011;7584;60.468;25.126;2023-02-18T03:52:27;4.23;;;2.60;;
14975;SDS011;7584;60.468;25.126;2023-02-18T03:54:52;3.40;;;2.40;;
14975;SDS011;7584;60.468;25.126;2023-02-18T03:57:17;3.90;;;2.60;;
14975;SDS011;7584;60.468;25.126;2023-02-18T03:59:43;2.83;;;2.23;;
14975;SDS011;7584;60.468;25.126;2023-02-18T04:02:08;4.57;;;3.17;;
14975;SDS011;7584;60.468;25.126;2023-02-18T04:04:33;5.80;;;3.10;;
14975;SDS011;7584;60.468;25.126;2023-02-18T04:06:58;2.83;;;2.03;;
14975;SDS011;7584;60.468;25.126;2023-02-18T04:09:24;4.73;;;2.97;;
14975;SDS011;7584;60.468;25.126;2023-02-18T04:11:49;4.97;;;2.73;;
14975;SDS011;7584;60.468;25.126;2023-02-18T04:14:14;4.60;;;2.87;;
14975;SDS011;7584;60.468;25.126;2023-02-18T04:16:40;4.60;;;2.67;;
14975;SDS011;7584;60.468;25.126;2023-02-18T04:19:05;3.63;;;2.73;;
14975;SDS011;7584;60.468;25.126;2023-02-18T04:21:31;5.90;;;3.20;;
14975;SDS011;7584;60.468;25.126;2023-02-18T04:23:57;5.83;;;2.93;;
14975;SDS011;7584;60.468;25.126;2023-02-18T04:26:22;4.37;;;3.07;;
14975;SDS011;7584;60.468;25.126;2023-02-18T04:28:47;5.73;;;2.80;;
14975;SDS011;7584;60.468;25.126;2023-02-18T04:31:12;4.40;;;3.03;;
14975;SDS011;7584;60.468;25.126;2023-02-18T04:33:39;4.73;;;3.27;;
14975;SDS011;7584;60.468;25.126;2023-02-18T04:36:04;3.40;;;2.80;;
14975;SDS011;7584;60.468;25.126;2023-02-18T04:38:33;3.77;;;2.40;;
14975;SDS011;7584;60.468;25.126;2023-02-18T04:40:59;4.40;;;3.00;;
14975;SDS011;7584;60.468;25.126;2023-02-18T04:43:24;4.73;;;3.00;;
14975;SDS011;7584;60.468;25.126;2023-02-18T04:45:49;7.03;;;3.70;;
14975;SDS011;7584;60.468;25.126;2023-02-18T04:48:15;5.37;;;3.10;;
14975;SDS011;7584;60.468;25.126;2023-02-18T04:50:40;5.00;;;2.77;;
14975;SDS011;7584;60.468;25.126;2023-02-18T04:53:05;5.13;;;3.40;;
14975;SDS011;7584;60.468;25.126;2023-02-18T04:55:30;4.90;;;2.50;;
14975;SDS011;7584;60.468;25.126;2023-02-18T04:57:56;4.17;;;2.83;;
14975;SDS011;7584;60.468;25.126;2023-02-18T05:00:21;5.43;;;3.30;;
14975;SDS011;7584;60.468;25.126;2023-02-18T05:02:46;4.33;;;2.60;;
14975;SDS011;7584;60.468;25.126;2023-02-18T05:05:12;5.80;;;3.17;;
14975;SDS011;7584;60.468;25.126;2023-02-18T05:07:38;6.20;;;3.40;;
14975;SDS011;7584;60.468;25.126;2023-02-18T05:10:05;5.07;;;3.23;;
14975;SDS011;7584;60.468;25.126;2023-02-18T05:12:31;5.40;;;3.07;;
14975;SDS011;7584;60.468;25.126;2023-02-18T05:14:56;6.00;;;3.13;;
14975;SDS011;7584;60.468;25.126;2023-02-18T05:17:21;6.10;;;3.00;;
14975;SDS011;7584;60.468;25.126;2023-02-18T05:19:51;6.47;;;3.30;;
14975;SDS011;7584;60.468;25.126;2023-02-18T05:22:17;5.07;;;3.00;;
14975;SDS011;7584;60.468;25.126;2023-02-18T05:24:43;3.93;;;2.50;;
14975;SDS011;7584;60.468;25.126;2023-02-18T05:27:08;4.73;;;3.13;;
14975;SDS011;7584;60.468;25.126;2023-02-18T05:29:33;5.37;;;2.73;;
14975;SDS011;7584;60.468;25.126;2023-02-18T05:31:58;4.20;;;2.80;;
14975;SDS011;7584;60.468;25.126;2023-02-18T05:34:24;5.23;;;3.40;;
14975;SDS011;7584;60.468;25.126;2023-02-18T05:36:49;3.63;;;2.57;;
14975;SDS011;7584;60.468;25.126;2023-02-18T05:39:14;4.47;;;2.63;;
14975;SDS011;7584;60.468;25.126;2023-02-18T05:41:39;3.13;;;2.30;;
14975;SDS011;7584;60.468;25.126;2023-02-18T05:44:05;5.23;;;2.70;;
14975;SDS011;7584;60.468;25.126;2023-02-18T05:46:49;4.30;;;3.10;;
14975;SDS011;7584;60.468;25.126;2023-02-18T05:49:17;6.20;;;2.93;;
14975;SDS011;7584;60.468;25.126;2023-02-18T05:51:42;3.63;;;2.40;;
14975;SDS011;7584;60.468;25.126;2023-02-18T05:54:07;5.07;;;3.20;;
14975;SDS011;7584;60.468;25.126;2023-02-18T05:56:33;4.33;;;2.67;;
14975;SDS011;7584;60.468;25.126;2023-02-18T05:58:58;4.70;;;3.07;;
14975;SDS011;7584;60.468;25.126;2023-02-18T06:01:23;4.40;;;2.50;;
14975;SDS011;7584;60.468;25.126;2023-02-18T06:03:48;4.50;;;3.00;;
14975;SDS011;7584;60.468;25.126;2023-02-18T06:06:14;7.53;;;3.50;;
14975;SDS011;7584;60.468;25.126;2023-02-18T06:08:39;4.80;;;2.67;;
14975;SDS011;7584;60.468;25.126;2023-02-18T06:11:04;4.70;;;2.63;;
14975;SDS011;7584;60.468;25.126;2023-02-18T06:13:30;4.37;;;3.00;;
14975;SDS011;7584;60.468;25.126;2023-02-18T06:15:57;4.27;;;2.67;;
14975;SDS011;7584;60.468;25.126;2023-02-18T06:18:23;5.20;;;2.60;;
14975;SDS011;7584;60.468;25.126;2023-02-18T06:20:51;3.70;;;2.43;;
14975;SDS011;7584;60.468;25.126;2023-02-18T06:23:22;5.37;;;2.47;;
14975;SDS011;7584;60.468;25.126;2023-02-18T06:25:48;6.07;;;3.00;;
14975;SDS011;7584;60.468;25.126;2023-02-18T06:28:14;2.93;;;2.53;;
14975;SDS011;7584;60.468;25.126;2023-02-18T06:30:39;4.07;;;2.77;;
14975;SDS011;7584;60.468;25.126;2023-02-18T06:33:04;3.37;;;2.67;;
14975;SDS011;7584;60.468;25.126;2023-02-18T06:35:29;4.87;;;2.60;;
14975;SDS011;7584;60.468;25.126;2023-02-18T06:37:55;6.63;;;2.63;;
14975;SDS011;7584;60.468;25.126;2023-02-18T06:40:20;6.47;;;2.67;;
14975;SDS011;7584;60.468;25.126;2023-02-18T06:42:45;4.93;;;2.60;;
14975;SDS011;7584;60.468;25.126;2023-02-18T06:45:11;5.37;;;2.80;;
14975;SDS011;7584;60.468;25.126;2023-02-18T06:47:36;4.67;;;2.30;;
14975;SDS011;7584;60.468;25.126;2023-02-18T06:50:02;4.53;;;2.80;;
14975;SDS011;7584;60.468;25.126;2023-02-18T06:52:27;4.07;;;2.60;;
14975;SDS011;7584;60.468;25.126;2023-02-18T06:54:54;5.77;;;2.77;;
14975;SDS011;7584;60.468;25.126;2023-02-18T06:57:20;6.87;;;2.83;;
14975;SDS011;7584;60.468;25.126;2023-02-18T06:59:45;3.83;;;2.80;;
14975;SDS011;7584;60.468;25.126;2023-02-18T07:02:13;5.07;;;2.90;;
14975;SDS011;7584;60.468;25.126;2023-02-18T07:04:38;5.57;;;3.13;;
14975;SDS011;7584;60.468;25.126;2023-02-18T07:07:03;4.37;;;3.00;;
14975;SDS011;7584;60.468;25.126;2023-02-18T07:09:29;6.40;;;2.60;;
14975;SDS011;7584;60.468;25.126;2023-02-18T07:11:54;4.50;;;2.50;;
14975;SDS011;7584;60.468;25.126;2023-02-18T07:14:19;5.80;;;3.07;;
14975;SDS011;7584;60.468;25.126;2023-02-18T07:16:45;4.70;;;2.53;;
14975;SDS011;7584;60.468;25.126;2023-02-18T07:19:10;4.60;;;2.63;;
14975;SDS011;7584;60.468;25.126;2023-02-18T07:21:36;5.37;;;2.70;;
14975;SDS011;7584;60.468;25.126;2023-02-18T07:24:01;6.03;;;3.00;;
14975;SDS011;7584;60.468;25.126;2023-02-18T07:26:26;4.30;;;2.43;;
14975;SDS011;7584;60.468;25.126;2023-02-18T07:28:52;5.80;;;3.00;;
14975;SDS011;7584;60.468;25.126;2023-02-18T07:31:17;3.53;;;2.37;;
14975;SDS011;7584;60.468;25.126;2023-02-18T07:33:42;3.73;;;2.33;;
14975;SDS011;7584;60.468;25.126;2023-02-18T07:36:08;4.37;;;2.57;;
14975;SDS011;7584;60.468;25.126;2023-02-18T07:38:33;4.43;;;2.80;;
14975;SDS011;7584;60.468;25.126;2023-02-18T07:40:58;4.70;;;2.80;;
14975;SDS011;7584;60.468;25.126;2023-02-18T07:43:24;4.13;;;2.80;;
14975;SDS011;7584;60.468;25.126;2023-02-18T07:45:49;4.13;;;2.37;;
14975;SDS011;7584;60.468;25.126;2023-02-18T07:48:14;4.60;;;3.00;;
14975;SDS011;7584;60.468;25.126;2023-02-18T07:50:40;6.17;;;3.03;;
14975;SDS011;7584;60.468;25.126;2023-02-18T07:53:06;4.30;;;2.90;;
14975;SDS011;7584;60.468;25.126;2023-02-18T07:55:31;5.87;;;2.93;;
14975;SDS011;7584;60.468;25.126;2023-02-18T08:00:43;4.67;;;2.47;;
14975;SDS011;7584;60.468;25.126;2023-02-18T08:03:08;5.13;;;3.33;;
14975;SDS011;7584;60.468;25.126;2023-02-18T08:05:34;4.50;;;2.80;;
14975;SDS011;7584;60.468;25.126;2023-02-18T08:07:59;3.87;;;2.77;;
14975;SDS011;7584;60.468;25.126;2023-02-18T08:10:24;4.50;;;2.97;;
14975;SDS011;7584;60.468;25.126;2023-02-18T08:12:49;4.13;;;2.50;;
14975;SDS011;7584;60.468;25.126;2023-02-18T08:15:15;5.67;;;2.80;;
14975;SDS011;7584;60.468;25.126;2023-02-18T08:17:40;5.23;;;2.60;;
14975;SDS011;7584;60.468;25.126;2023-02-18T08:20:06;4.30;;;2.63;;
14975;SDS011;7584;60.468;25.126;2023-02-18T08:22:31;5.30;;;2.87;;
14975;SDS011;7584;60.468;25.126;2023-02-18T08:24:56;3.90;;;2.30;;
14975;SDS011;7584;60.468;25.126;2023-02-18T08:27:22;5.07;;;2.80;;
14975;SDS011;7584;60.468;25.126;2023-02-18T08:29:47;4.27;;;2.70;;
14975;SDS011;7584;60.468;25.126;2023-02-18T08:32:13;3.93;;;2.83;;
14975;SDS011;7584;60.468;25.126;2023-02-18T08:34:38;5.60;;;2.67;;
14975;SDS011;7584;60.468;25.126;2023-02-18T08:37:04;3.50;;;2.40;;
14975;SDS011;7584;60.468;25.126;2023-02-18T08:39:33;4.87;;;3.07;;
14975;SDS011;7584;60.468;25.126;2023-02-18T08:41:58;4.53;;;3.10;;
14975;SDS011;7584;60.468;25.126;2023-02-18T08:44:24;3.60;;;2.70;;
14975;SDS011;7584;60.468;25.126;2023-02-18T08:46:49;6.50;;;2.67;;
14975;SDS011;7584;60.468;25.126;2023-02-18T08:49:15;3.93;;;2.63;;
14975;SDS011;7584;60.468;25.126;2023-02-18T08:51:40;4.93;;;3.20;;
14975;SDS011;7584;60.468;25.126;2023-02-18T08:54:05;4.63;;;3.10;;
14975;SDS011;7584;60.468;25.126;2023-02-18T08:56:31;6.07;;;2.50;;
14975;SDS011;7584;60.468;25.126;2023-02-18T08:58:57;4.40;;;2.60;;
14975;SDS011;7584;60.468;25.126;2023-02-18T09:01:22;5.33;;;2.57;;
14975;SDS011;7584;60.468;25.126;2023-02-18T09:03:47;7.30;;;3.10;;
14975;SDS011;7584;60.468;25.126;2023-02-18T09:06:13;4.70;;;2.97;;
14975;SDS011;7584;60.468;25.126;2023-02-18T09:08:38;5.37;;;2.87;;
14975;SDS011;7584;60.468;25.126;2023-02-18T09:11:03;5.30;;;2.60;;
14975;SDS011;7584;60.468;25.126;2023-02-18T09:13:29;4.63;;;2.70;;
14975;SDS011;7584;60.468;25.126;2023-02-18T09:15:59;4.57;;;3.33;;
14975;SDS011;7584;60.468;25.126;2023-02-18T09:18:24;3.90;;;2.70;;
14975;SDS011;7584;60.468;25.126;2023-02-18T09:20:50;4.27;;;2.27;;
14975;SDS011;7584;60.468;25.126;2023-02-18T09:23:15;3.43;;;2.57;;
14975;SDS011;7584;60.468;25.126;2023-02-18T09:25:41;5.80;;;2.43;;
14975;SDS011;7584;60.468;25.126;2023-02-18T09:28:07;5.20;;;2.33;;
14975;SDS011;7584;60.468;25.126;2023-02-18T09:30:32;4.43;;;2.53;;
14975;SDS011;7584;60.468;25.126;2023-02-18T09:32:57;3.90;;;2.80;;
14975;SDS011;7584;60.468;25.126;2023-02-18T09:35:23;5.07;;;2.93;;
14975;SDS011;7584;60.468;25.126;2023-02-18T09:37:48;6.17;;;2.87;;
14975;SDS011;7584;60.468;25.126;2023-02-18T09:40:20;6.27;;;3.20;;
14975;SDS011;7584;60.468;25.126;2023-02-18T09:42:48;4.97;;;2.40;;
14975;SDS011;7584;60.468;25.126;2023-02-18T09:45:13;6.83;;;2.80;;
14975;SDS011;7584;60.468;25.126;2023-02-18T09:47:41;5.60;;;2.83;;
14975;SDS011;7584;60.468;25.126;2023-02-18T09:50:16;4.57;;;2.73;;
14975;SDS011;7584;60.468;25.126;2023-02-18T09:52:43;5.13;;;2.50;;
14975;SDS011;7584;60.468;25.126;2023-02-18T09:55:19;4.33;;;2.80;;
14975;SDS011;7584;60.468;25.126;2023-02-18T09:57:49;5.40;;;2.70;;
14975;SDS011;7584;60.468;25.126;2023-02-18T10:00:28;4.10;;;2.33;;
14975;SDS011;7584;60.468;25.126;2023-02-18T10:02:59;4.57;;;2.47;;
14975;SDS011;7584;60.468;25.126;2023-02-18T10:05:26;6.27;;;3.37;;
14975;SDS011;7584;60.468;25.126;2023-02-18T10:07:54;12.67;;;7.63;;
14975;SDS011;7584;60.468;25.126;2023-02-18T10:10:42;6.50;;;4.40;;
14975;SDS011;7584;60.468;25.126;2023-02-18T10:13:10;7.30;;;3.73;;
14975;SDS011;7584;60.468;25.126;2023-02-18T10:15:36;3.93;;;2.90;;
14975;SDS011;7584;60.468;25.126;2023-02-18T10:18:01;3.77;;;2.90;;
14975;SDS011;7584;60.468;25.126;2023-02-18T10:20:28;4.30;;;3.60;;
14975;SDS011;7584;60.468;25.126;2023-02-18T10:22:54;6.80;;;3.03;;
14975;SDS011;7584;60.468;25.126;2023-02-18T10:25:21;3.60;;;2.43;;
14975;SDS011;7584;60.468;25.126;2023-02-18T10:27:47;3.20;;;2.30;;
14975;SDS011;7584;60.468;25.126;2023-02-18T10:32:39;5.03;;;2.83;;
14975;SDS011;7584;60.468;25.126;2023-02-18T10:50:44;3.87;;;1.87;;
14975;SDS011;7584;60.468;25.126;2023-02-18T10:53:28;4.00;;;2.67;;
14975;SDS011;7584;60.468;25.126;2023-02-18T10:55:55;2.83;;;2.20;;
14975;SDS011;7584;60.468;25.126;2023-02-18T11:00:48;3.57;;;2.10;;
14975;SDS011;7584;60.468;25.126;2023-02-18T11:05:47;2.90;;;2.03;;
14975;SDS011;7584;60.468;25.126;2023-02-18T11:08:17;3.37;;;2.13;;
14975;SDS011;7584;60.468;25.126;2023-02-18T11:10:44;2.93;;;1.90;;
14975;SDS011;7584;60.468;25.126;2023-02-18T11:13:11;4.47;;;2.30;;
14975;SDS011;7584;60.468;25.126;2023-02-18T11:15:37;3.20;;;2.20;;
14975;SDS011;7584;60.468;25.126;2023-02-18T11:18:12;4.33;;;1.80;;
14975;SDS011;7584;60.468;25.126;2023-02-18T11:20:38;3.43;;;2.13;;
14975;SDS011;7584;60.468;25.126;2023-02-18T11:25:33;2.73;;;2.37;;
14975;SDS011;7584;60.468;25.126;2023-02-18T11:28:00;6.07;;;2.50;;
14975;SDS011;7584;60.468;25.126;2023-02-18T11:30:33;4.10;;;2.30;;
14975;SDS011;7584;60.468;25.126;2023-02-18T11:33:07;3.83;;;2.30;;
14975;SDS011;7584;60.468;25.126;2023-02-18T11:35:33;3.10;;;2.30;;
14975;SDS011;7584;60.468;25.126;2023-02-18T11:37:59;3.00;;;1.80;;
14975;SDS011;7584;60.468;25.126;2023-02-18T11:43:08;2.47;;;2.20;;
14975;SDS011;7584;60.468;25.126;2023-02-18T11:45:35;5.60;;;2.30;;
14975;SDS011;7584;60.468;25.126;2023-02-18T11:48:08;3.60;;;2.40;;
14975;SDS011;7584;60.468;25.126;2023-02-18T11:50:38;2.50;;;2.13;;
14975;SDS011;7584;60.468;25.126;2023-02-18T11:53:25;3.20;;;2.20;;
14975;SDS011;7584;60.468;25.126;2023-02-18T11:55:56;2.90;;;2.30;;
14975;SDS011;7584;60.468;25.126;2023-02-18T11:58:21;4.43;;;2.70;;
14975;SDS011;7584;60.468;25.126;2023-02-18T12:00:47;3.70;;;2.60;;
14975;SDS011;7584;60.468;25.126;2023-02-18T12:05:46;3.67;;;2.47;;
14975;SDS011;7584;60.468;25.126;2023-02-18T12:08:13;4.37;;;2.60;;
14975;SDS011;7584;60.468;25.126;2023-02-18T12:10:46;4.60;;;2.63;;
14975;SDS011;7584;60.468;25.126;2023-02-18T12:18:39;3.47;;;2.37;;
14975;SDS011;7584;60.468;25.126;2023-02-18T12:23:57;4.53;;;3.00;;
14975;SDS011;7584;60.468;25.126;2023-02-18T12:34:30;3.77;;;2.20;;
14975;SDS011;7584;60.468;25.126;2023-02-18T12:58:05;4.53;;;2.60;;
14975;SDS011;7584;60.468;25.126;2023-02-18T13:13:41;5.83;;;3.03;;
14975;SDS011;7584;60.468;25.126;2023-02-18T13:16:12;5.50;;;2.70;;
14975;SDS011;7584;60.468;25.126;2023-02-18T13:18:39;4.23;;;2.67;;
14975;SDS011;7584;60.468;25.126;2023-02-18T13:21:06;6.57;;;3.13;;
14975;SDS011;7584;60.468;25.126;2023-02-18T13:23:37;4.30;;;3.00;;
14975;SDS011;7584;60.468;25.126;2023-02-18T13:26:04;5.47;;;3.10;;
14975;SDS011;7584;60.468;25.126;2023-02-18T13:33:27;4.73;;;3.30;;
14975;SDS011;7584;60.468;25.126;2023-02-18T13:38:41;5.17;;;3.17;;
14975;SDS011;7584;60.468;25.126;2023-02-18T13:41:12;4.97;;;3.13;;
14975;SDS011;7584;60.468;25.126;2023-02-18T13:43:37;4.67;;;3.00;;
14975;SDS011;7584;60.468;25.126;2023-02-18T13:46:11;4.30;;;2.80;;
14975;SDS011;7584;60.468;25.126;2023-02-18T13:51:06;4.17;;;3.10;;
14975;SDS011;7584;60.468;25.126;2023-02-18T13:53:34;4.37;;;2.77;;
14975;SDS011;7584;60.468;25.126;2023-02-18T13:56:02;6.40;;;3.50;;
14975;SDS011;7584;60.468;25.126;2023-02-18T13:58:29;5.57;;;3.63;;
14975;SDS011;7584;60.468;25.126;2023-02-18T14:00:59;5.23;;;3.27;;
14975;SDS011;7584;60.468;25.126;2023-02-18T14:03:30;4.23;;;2.80;;
14975;SDS011;7584;60.468;25.126;2023-02-18T14:06:45;4.77;;;2.70;;
14975;SDS011;7584;60.468;25.126;2023-02-18T14:09:02;5.30;;;3.23;;
14975;SDS011;7584;60.468;25.126;2023-02-18T14:11:41;4.20;;;3.00;;
14975;SDS011;7584;60.468;25.126;2023-02-18T14:14:14;5.90;;;2.97;;
14975;SDS011;7584;60.468;25.126;2023-02-18T14:19:26;5.43;;;3.60;;
14975;SDS011;7584;60.468;25.126;2023-02-18T14:21:52;4.87;;;3.10;;
14975;SDS011;7584;60.468;25.126;2023-02-18T14:24:47;5.03;;;3.30;;
14975;SDS011;7584;60.468;25.126;2023-02-18T14:27:14;5.87;;;3.27;;
14975;SDS011;7584;60.468;25.126;2023-02-18T14:29:40;6.10;;;3.37;;
14975;SDS011;7584;60.468;25.126;2023-02-18T14:32:09;4.53;;;3.40;;
14975;SDS011;7584;60.468;25.126;2023-02-18T14:34:43;5.47;;;3.60;;
14975;SDS011;7584;60.468;25.126;2023-02-18T14:47:19;4.30;;;2.73;;
14975;SDS011;7584;60.468;25.126;2023-02-18T14:54:44;5.70;;;3.00;;
14975;SDS011;7584;60.468;25.126;2023-02-18T14:57:16;4.27;;;3.43;;
14975;SDS011;7584;60.468;25.126;2023-02-18T14:59:44;4.77;;;2.77;;
14975;SDS011;7584;60.468;25.126;2023-02-18T15:04:41;4.70;;;3.17;;
14975;SDS011;7584;60.468;25.126;2023-02-18T15:07:07;5.63;;;3.60;;
14975;SDS011;7584;60.468;25.126;2023-02-18T15:09:33;5.70;;;3.47;;
14975;SDS011;7584;60.468;25.126;2023-02-18T15:12:02;4.63;;;3.67;;
14975;SDS011;7584;60.468;25.126;2023-02-18T15:14:31;5.47;;;3.50;;
14975;SDS011;7584;60.468;25.126;2023-02-18T15:16:57;4.60;;;3.17;;
14975;SDS011;7584;60.468;25.126;2023-02-18T15:19:24;5.37;;;3.93;;
14975;SDS011;7584;60.468;25.126;2023-02-18T15:21:50;5.53;;;4.03;;
14975;SDS011;7584;60.468;25.126;2023-02-18T15:24:20;4.60;;;3.70;;
14975;SDS011;7584;60.468;25.126;2023-02-18T15:26:47;5.20;;;3.83;;
14975;SDS011;7584;60.468;25.126;2023-02-18T15:29:22;4.47;;;3.30;;
14975;SDS011;7584;60.468;25.126;2023-02-18T15:31:48;6.00;;;3.67;;
14975;SDS011;7584;60.468;25.126;2023-02-18T15:34:35;6.90;;;3.93;;
14975;SDS011;7584;60.468;25.126;2023-02-18T15:36:59;5.73;;;4.03;;
14975;SDS011;7584;60.468;25.126;2023-02-18T15:39:25;6.10;;;3.50;;
14975;SDS011;7584;60.468;25.126;2023-02-18T15:41:58;5.47;;;3.73;;
14975;SDS011;7584;60.468;25.126;2023-02-18T15:44:27;6.07;;;3.63;;
14975;SDS011;7584;60.468;25.126;2023-02-18T15:46:53;5.50;;;3.67;;
14975;SDS011;7584;60.468;25.126;2023-02-18T15:49:19;7.57;;;4.23;;
14975;SDS011;7584;60.468;25.126;2023-02-18T15:51:45;7.20;;;4.03;;
14975;SDS011;7584;60.468;25.126;2023-02-18T15:54:11;5.23;;;3.83;;
14975;SDS011;7584;60.468;25.126;2023-02-18T15:56:39;7.30;;;4.27;;
14975;SDS011;7584;60.468;25.126;2023-02-18T16:01:33;5.70;;;4.23;;
14975;SDS011;7584;60.468;25.126;2023-02-18T16:03:58;7.50;;;4.70;;
14975;SDS011;7584;60.468;25.126;2023-02-18T16:06:25;9.07;;;5.13;;
14975;SDS011;7584;60.468;25.126;2023-02-18T16:08:54;8.87;;;4.90;;
14975;SDS011;7584;60.468;25.126;2023-02-18T16:11:21;8.63;;;4.80;;
14975;SDS011;7584;60.468;25.126;2023-02-18T16:13:47;8.03;;;4.50;;
14975;SDS011;7584;60.468;25.126;2023-02-18T16:18:47;7.20;;;4.20;;
14975;SDS011;7584;60.468;25.126;2023-02-18T16:23:42;7.27;;;4.37;;
14975;SDS011;7584;60.468;25.126;2023-02-18T16:26:50;8.07;;;4.57;;
14975;SDS011;7584;60.468;25.126;2023-02-18T16:29:05;8.07;;;4.83;;
14975;SDS011;7584;60.468;25.126;2023-02-18T16:31:34;9.87;;;5.17;;
14975;SDS011;7584;60.468;25.126;2023-02-18T16:33:59;10.20;;;5.90;;
14975;SDS011;7584;60.468;25.126;2023-02-18T16:36:25;6.10;;;4.87;;
14975;SDS011;7584;60.468;25.126;2023-02-18T16:38:50;9.00;;;5.23;;
14975;SDS011;7584;60.468;25.126;2023-02-18T16:41:15;12.53;;;7.27;;
14975;SDS011;7584;60.468;25.126;2023-02-18T16:43:41;7.40;;;5.03;;
14975;SDS011;7584;60.468;25.126;2023-02-18T16:46:14;8.13;;;5.20;;
14975;SDS011;7584;60.468;25.126;2023-02-18T16:48:41;9.83;;;5.50;;
14975;SDS011;7584;60.468;25.126;2023-02-18T16:53:35;7.20;;;4.93;;
14975;SDS011;7584;60.468;25.126;2023-02-18T16:56:00;7.57;;;5.13;;
14975;SDS011;7584;60.468;25.126;2023-02-18T16:58:27;7.20;;;4.77;;
14975;SDS011;7584;60.468;25.126;2023-02-18T17:00:52;7.83;;;4.87;;
14975;SDS011;7584;60.468;25.126;2023-02-18T17:03:18;8.57;;;4.47;;
14975;SDS011;7584;60.468;25.126;2023-02-18T17:05:43;6.73;;;4.57;;
14975;SDS011;7584;60.468;25.126;2023-02-18T17:08:16;6.53;;;4.67;;
14975;SDS011;7584;60.468;25.126;2023-02-18T17:10:43;7.50;;;5.57;;
14975;SDS011;7584;60.468;25.126;2023-02-18T17:13:12;9.63;;;5.17;;
14975;SDS011;7584;60.468;25.126;2023-02-18T17:15:38;9.50;;;5.50;;
14975;SDS011;7584;60.468;25.126;2023-02-18T17:18:04;7.37;;;4.30;;
14975;SDS011;7584;60.468;25.126;2023-02-18T17:20:30;8.47;;;5.23;;
14975;SDS011;7584;60.468;25.126;2023-02-18T17:22:56;9.03;;;5.43;;
14975;SDS011;7584;60.468;25.126;2023-02-18T17:25:24;8.30;;;5.10;;
14975;SDS011;7584;60.468;25.126;2023-02-18T17:27:52;6.73;;;4.57;;
14975;SDS011;7584;60.468;25.126;2023-02-18T17:30:18;6.63;;;4.87;;
14975;SDS011;7584;60.468;25.126;2023-02-18T17:32:43;7.90;;;5.50;;
14975;SDS011;7584;60.468;25.126;2023-02-18T17:35:13;8.67;;;5.07;;
14975;SDS011;7584;60.468;25.126;2023-02-18T17:37:39;8.13;;;4.70;;